Time;durP1;ratioP1;P1;durP2;ratioP2;P2;SDS_P1;SDS_P2;PMS_P1;PMS_P2;Temp;Humidity;BMP_temperature;BMP_pressure;BME280_temperature;BME280_humidity;BME280_pressure;Samples;Min_cycle;Max_cycle;Signal;HPM_P1;HPM_P2
2022/09/07 00:02:00;;;;;;;5.10;2.55;;;21.20;99.90;;;;;;5075389;28;20181;-66
2022/09/07 00:04:26;;;;;;;3.63;2.22;;;21.20;99.90;;;;;;5076005;28;20205;-66
2022/09/07 00:06:52;;;;;;;5.20;2.70;;;21.20;99.90;;;;;;5087085;28;20209;-66
2022/09/07 00:09:18;;;;;;;4.20;2.60;;;21.20;99.90;;;;;;5095734;28;20170;-66
2022/09/07 00:11:43;;;;;;;3.47;2.22;;;21.10;99.90;;;;;;5095852;28;20204;-66
2022/09/07 00:14:09;;;;;;;8.20;2.70;;;21.00;99.90;;;;;;5095919;28;20173;-66
2022/09/07 00:16:35;;;;;;;20.40;2.70;;;21.30;99.90;;;;;;5095698;28;20548;-66
2022/09/07 00:19:03;;;;;;;8.85;2.10;;;21.50;99.90;;;;;;5096328;28;20177;-66
2022/09/07 00:21:30;;;;;;;19.10;2.78;;;21.70;99.90;;;;;;5095756;28;20185;-67
2022/09/07 00:23:56;;;;;;;18.83;2.10;;;21.70;99.90;;;;;;5095088;28;20209;-67
2022/09/07 00:26:25;;;;;;;22.13;1.98;;;21.50;99.90;;;;;;5095221;28;20299;-67
2022/09/07 00:28:55;;;;;;;21.13;2.33;;;21.40;99.90;;;;;;5076500;28;20182;-65
2022/09/07 00:31:22;;;;;;;15.98;2.20;;;21.30;99.90;;;;;;5074768;28;20359;-67
2022/09/07 00:33:50;;;;;;;8.00;1.60;;;21.30;99.90;;;;;;5074025;28;20185;-66
2022/09/07 00:36:17;;;;;;;9.63;1.50;;;21.20;99.90;;;;;;5081676;28;20183;-66
2022/09/07 00:38:43;;;;;;;8.30;1.58;;;21.00;99.90;;;;;;5095065;28;20539;-67
2022/09/07 00:41:10;;;;;;;7.65;1.38;;;21.00;99.90;;;;;;5095131;28;20207;-66
2022/09/07 00:43:37;;;;;;;6.57;1.58;;;20.90;99.90;;;;;;5094054;28;20201;-66
2022/09/07 00:46:05;;;;;;;6.65;1.45;;;20.80;99.90;;;;;;5094856;28;20262;-67
2022/09/07 00:48:44;;;;;;;6.80;1.63;;;20.80;99.90;;;;;;5093843;28;20193;-67
2022/09/07 00:51:23;;;;;;;4.35;1.30;;;20.70;99.90;;;;;;5094037;28;20157;-67
2022/09/07 00:53:54;;;;;;;2.35;1.10;;;20.70;99.90;;;;;;5094295;28;20173;-67
2022/09/07 00:56:24;;;;;;;3.05;1.05;;;20.50;99.90;;;;;;5096491;28;20183;-67
2022/09/07 00:58:50;;;;;;;4.22;1.00;;;20.50;99.90;;;;;;5077683;28;20529;-67
2022/09/07 01:01:16;;;;;;;2.28;1.20;;;20.50;99.90;;;;;;5074710;28;20174;-66
2022/09/07 01:03:48;;;;;;;2.35;1.00;;;20.40;99.90;;;;;;5074893;28;20201;-66
2022/09/07 01:06:20;;;;;;;1.05;1.00;;;20.40;99.90;;;;;;5082430;28;20177;-66
2022/09/07 01:08:48;;;;;;;1.10;1.10;;;20.40;99.90;;;;;;5093636;28;20184;-66
2022/09/07 01:11:20;;;;;;;0.90;0.90;;;20.30;99.90;;;;;;5095059;28;20157;-66
2022/09/07 01:13:47;;;;;;;1.15;0.90;;;20.30;99.90;;;;;;5093463;28;20176;-66
2022/09/07 01:16:31;;;;;;;2.38;1.17;;;20.30;99.90;;;;;;5094341;28;20516;-66
2022/09/07 01:19:28;;;;;;;4.07;1.33;;;20.30;99.90;;;;;;5093657;28;20176;-66
2022/09/07 01:22:03;;;;;;;2.83;1.23;;;20.20;99.90;;;;;;5093259;28;20556;-66
2022/09/07 01:25:00;;;;;;;1.70;1.00;;;20.20;99.90;;;;;;5094833;28;20195;-67
2022/09/07 01:27:40;;;;;;;1.35;1.20;;;20.10;99.90;;;;;;5086809;28;20239;-66
2022/09/07 01:30:09;;;;;;;2.53;1.40;;;19.90;99.90;;;;;;5073972;28;20156;-66
2022/09/07 01:33:13;;;;;;;1.40;1.27;;;19.70;99.90;;;;;;5073739;28;20182;-66
2022/09/07 01:35:47;;;;;;;2.47;1.60;;;19.50;99.90;;;;;;5074792;28;20273;-66
2022/09/07 01:38:25;;;;;;;1.90;1.35;;;19.20;99.90;;;;;;5092541;28;20208;-66
2022/09/07 01:40:58;;;;;;;3.05;1.60;;;18.90;99.90;;;;;;5093036;28;20547;-66
2022/09/07 01:43:46;;;;;;;3.00;1.50;;;18.50;99.90;;;;;;5092676;28;20189;-66
2022/09/07 01:46:32;;;;;;;3.22;1.70;;;18.20;99.90;;;;;;5093868;28;20153;-66
2022/09/07 01:49:13;;;;;;;2.30;1.80;;;17.80;99.90;;;;;;5094252;28;20162;-66
2022/09/07 01:51:43;;;;;;;4.68;1.95;;;17.50;99.90;;;;;;5094192;28;20192;-66
2022/09/07 01:54:40;;;;;;;6.95;1.90;;;17.30;99.90;;;;;;5094146;28;20157;-66
2022/09/07 01:57:20;;;;;;;3.75;1.90;;;17.30;99.90;;;;;;5088987;28;20263;-66
2022/09/07 01:59:57;;;;;;;4.32;2.05;;;17.30;99.90;;;;;;5073652;28;20603;-66
2022/09/07 02:02:37;;;;;;;5.00;2.33;;;17.40;99.90;;;;;;5071947;28;20192;-67
2022/09/07 02:05:27;;;;;;;4.03;2.20;;;17.40;99.90;;;;;;5072325;28;20545;-67
2022/09/07 02:08:18;;;;;;;3.25;2.42;;;17.40;99.90;;;;;;5052504;28;20209;-67
2022/09/07 02:10:53;;;;;;;2.00;1.80;;;17.40;99.90;;;;;;5062266;28;20186;-67
2022/09/07 02:13:33;;;;;;;3.95;2.00;;;17.50;99.90;;;;;;5052767;28;20196;-67
2022/09/07 02:16:03;;;;;;;5.45;2.47;;;17.40;99.90;;;;;;5053941;28;20194;-67
2022/09/07 02:18:37;;;;;;;3.03;1.92;;;17.40;99.90;;;;;;5053412;28;20738;-67
2022/09/07 02:21:07;;;;;;;2.22;2.00;;;17.30;99.90;;;;;;5054238;28;20178;-67
2022/09/07 02:23:39;;;;;;;3.13;2.13;;;17.30;99.90;;;;;;5053711;28;20198;-67
2022/09/07 02:26:13;;;;;;;4.78;2.10;;;17.40;99.90;;;;;;5053624;28;20211;-67
2022/09/07 02:28:40;;;;;;;4.15;2.20;;;17.50;99.90;;;;;;5070769;28;20644;-67
2022/09/07 02:31:07;;;;;;;3.83;1.90;;;17.50;99.90;;;;;;5073676;28;20235;-67
2022/09/07 02:33:33;;;;;;;5.40;2.20;;;17.60;99.90;;;;;;5073344;28;20200;-67
2022/09/07 02:36:00;;;;;;;4.35;2.15;;;17.50;99.90;;;;;;5078636;28;20188;-67
2022/09/07 02:38:27;;;;;;;5.55;2.40;;;17.40;99.90;;;;;;5093471;28;20204;-67
2022/09/07 02:40:55;;;;;;;2.88;2.17;;;17.40;99.90;;;;;;5093354;28;20196;-67
2022/09/07 02:43:23;;;;;;;4.43;2.40;;;17.40;99.90;;;;;;5093254;28;20205;-67
2022/09/07 02:46:10;;;;;;;2.10;1.90;;;17.40;99.90;;;;;;5092290;28;20629;-67
2022/09/07 02:49:05;;;;;;;3.10;2.40;;;17.50;99.90;;;;;;5096005;28;20189;-67
2022/09/07 02:52:09;;;;;;;4.32;2.30;;;17.30;99.90;;;;;;5097549;28;20150;-67
2022/09/07 02:54:58;;;;;;;2.65;2.10;;;17.30;99.90;;;;;;5097945;28;20598;-67
2022/09/07 02:57:54;;;;;;;5.28;2.47;;;17.40;99.90;;;;;;5090502;28;20285;-67
2022/09/07 03:00:27;;;;;;;3.47;2.65;;;17.40;99.90;;;;;;5076959;28;20510;-67
2022/09/07 03:03:21;;;;;;;3.60;2.40;;;17.30;99.90;;;;;;5076759;28;20208;-67
2022/09/07 03:06:18;;;;;;;4.80;2.47;;;17.40;99.90;;;;;;5079212;28;20181;-67
2022/09/07 03:08:49;;;;;;;7.35;2.55;;;17.40;99.90;;;;;;5096766;28;20186;-67
2022/09/07 03:11:16;;;;;;;7.20;2.38;;;17.40;99.90;;;;;;5097154;28;20234;-67
2022/09/07 03:13:42;;;;;;;2.58;2.20;;;17.40;99.90;;;;;;5097658;28;20537;-67
2022/09/07 03:16:12;;;;;;;3.13;2.25;;;17.40;99.90;;;;;;5097208;28;20169;-67
2022/09/07 03:18:39;;;;;;;3.67;2.50;;;17.30;99.90;;;;;;5101027;28;20193;-67
2022/09/07 03:21:05;;;;;;;3.13;2.33;;;17.40;99.90;;;;;;5099941;28;20220;-67
2022/09/07 03:23:31;;;;;;;4.45;2.47;;;17.40;99.90;;;;;;5101359;28;20193;-67
2022/09/07 03:25:57;;;;;;;4.10;2.30;;;17.40;99.90;;;;;;5099055;28;20692;-67
2022/09/07 03:28:23;;;;;;;4.78;2.40;;;17.40;99.90;;;;;;5082009;28;20297;-67
2022/09/07 03:30:48;;;;;;;3.35;2.20;;;17.40;99.90;;;;;;5076502;28;20205;-67
2022/09/07 03:33:15;;;;;;;2.53;2.17;;;17.30;99.90;;;;;;5076122;28;20189;-67
2022/09/07 03:35:45;;;;;;;4.55;2.30;;;17.30;99.90;;;;;;5078097;28;20192;-67
2022/09/07 03:38:12;;;;;;;3.90;2.50;;;17.30;99.90;;;;;;5096837;28;20673;-67
2022/09/07 03:40:37;;;;;;;3.95;2.58;;;17.30;99.90;;;;;;5096374;28;20541;-67
2022/09/07 03:43:04;;;;;;;10.00;2.90;;;17.30;99.90;;;;;;5096740;28;20199;-67
2022/09/07 03:45:29;;;;;;;3.33;2.53;;;17.20;99.90;;;;;;5096364;28;20170;-67
2022/09/07 03:47:55;;;;;;;3.05;2.40;;;17.10;99.90;;;;;;5096270;28;20579;-67
2022/09/07 03:50:21;;;;;;;3.28;2.40;;;17.10;99.90;;;;;;5096351;28;20184;-67
2022/09/07 03:52:46;;;;;;;3.38;2.60;;;17.10;99.90;;;;;;5096273;28;20226;-66
2022/09/07 03:55:12;;;;;;;4.40;2.83;;;17.10;99.90;;;;;;5096908;28;20177;-66
2022/09/07 03:57:39;;;;;;;2.55;2.35;;;17.10;99.90;;;;;;5085941;28;20209;-67
2022/09/07 04:00:05;;;;;;;3.30;2.30;;;17.10;99.90;;;;;;5073285;28;20530;-67
2022/09/07 04:02:31;;;;;;;3.55;2.90;;;17.10;99.90;;;;;;5075738;28;20235;-66
2022/09/07 04:04:57;;;;;;;5.53;3.10;;;17.10;99.90;;;;;;5076308;28;20174;-67
2022/09/07 04:07:22;;;;;;;3.63;3.00;;;16.90;99.90;;;;;;5092642;28;20193;-67
2022/09/07 04:09:50;;;;;;;4.35;2.67;;;17.00;99.90;;;;;;5096244;28;20172;-67
2022/09/07 04:12:16;;;;;;;6.35;2.67;;;16.90;99.90;;;;;;5096035;28;20165;-67
2022/09/07 04:14:42;;;;;;;4.20;2.90;;;16.90;99.90;;;;;;5095483;28;20181;-67
2022/09/07 04:17:08;;;;;;;5.28;2.75;;;17.00;99.90;;;;;;5093988;28;20200;-67
2022/09/07 04:19:33;;;;;;;4.78;2.97;;;17.00;99.90;;;;;;5095737;28;20259;-67
2022/09/07 04:21:59;;;;;;;3.63;3.17;;;16.90;99.90;;;;;;5096512;28;20233;-67
2022/09/07 04:24:25;;;;;;;3.35;2.92;;;16.90;99.90;;;;;;5095419;28;20564;-67
2022/09/07 04:26:51;;;;;;;3.38;3.08;;;16.90;99.90;;;;;;5093897;28;20606;-67
2022/09/07 04:29:17;;;;;;;7.93;3.80;;;16.80;99.90;;;;;;5073824;28;20178;-67
2022/09/07 04:31:42;;;;;;;5.38;3.30;;;16.80;99.90;;;;;;5073370;28;20189;-67
2022/09/07 04:34:14;;;;;;;3.88;3.00;;;16.70;99.90;;;;;;5075271;28;20182;-66
2022/09/07 04:36:40;;;;;;;6.50;4.03;;;16.60;99.90;;;;;;5086178;28;20207;-67
2022/09/07 04:39:06;;;;;;;4.13;3.17;;;16.50;99.90;;;;;;5097682;28;20242;-67
2022/09/07 04:41:33;;;;;;;9.23;3.38;;;16.50;99.90;;;;;;5097759;28;20192;-67
2022/09/07 04:44:01;;;;;;;3.22;2.92;;;16.40;99.90;;;;;;5095019;28;20265;-67
2022/09/07 04:46:29;;;;;;;4.30;3.30;;;16.50;99.90;;;;;;5094700;28;20170;-67
2022/09/07 04:48:57;;;;;;;5.65;3.22;;;16.50;99.90;;;;;;5094729;28;20176;-66
2022/09/07 04:51:25;;;;;;;4.43;3.42;;;16.50;99.90;;;;;;5095128;28;20170;-67
2022/09/07 04:53:53;;;;;;;6.25;3.45;;;16.50;99.90;;;;;;5094870;28;20403;-66
2022/09/07 04:56:20;;;;;;;4.88;3.60;;;16.50;99.90;;;;;;5095446;28;20176;-67
2022/09/07 04:58:47;;;;;;;6.00;4.15;;;16.50;99.90;;;;;;5076383;28;20268;-66
2022/09/07 05:01:15;;;;;;;8.45;3.70;;;16.50;99.90;;;;;;5074301;28;20213;-67
2022/09/07 05:03:42;;;;;;;7.90;4.03;;;16.50;99.90;;;;;;5073950;28;20720;-67
2022/09/07 05:06:08;;;;;;;7.45;4.10;;;16.50;99.90;;;;;;5080869;28;20730;-66
2022/09/07 05:08:42;;;;;;;8.80;3.53;;;16.50;99.90;;;;;;5094445;28;20216;-66
2022/09/07 05:11:09;;;;;;;4.78;3.88;;;16.50;99.90;;;;;;5094282;28;20668;-66
2022/09/07 05:13:35;;;;;;;4.97;3.88;;;16.40;99.90;;;;;;5094319;28;20230;-67
2022/09/07 05:16:07;;;;;;;5.25;3.70;;;16.40;99.90;;;;;;5094321;28;20196;-67
2022/09/07 05:18:33;;;;;;;4.38;3.05;;;16.40;99.90;;;;;;5094076;28;20199;-67
2022/09/07 05:21:14;;;;;;;3.40;2.80;;;16.30;99.90;;;;;;5094252;28;20169;-66
2022/09/07 05:23:41;;;;;;;3.63;3.20;;;16.20;99.90;;;;;;5094081;28;20545;-66
2022/09/07 05:26:08;;;;;;;4.22;3.60;;;16.20;99.90;;;;;;5094439;28;20177;-67
2022/09/07 05:28:34;;;;;;;4.07;3.00;;;16.20;99.90;;;;;;5077528;28;20202;-66
2022/09/07 05:31:11;;;;;;;3.45;2.97;;;16.20;99.90;;;;;;5072452;28;20173;-67
2022/09/07 05:33:37;;;;;;;3.63;3.30;;;16.30;99.90;;;;;;5073462;28;20208;-66
2022/09/07 05:36:05;;;;;;;3.80;3.03;;;16.30;99.90;;;;;;5079716;28;20196;-66
2022/09/07 05:38:34;;;;;;;5.88;3.30;;;16.30;99.90;;;;;;5094000;28;20691;-66
2022/09/07 05:41:00;;;;;;;4.03;3.63;;;16.30;99.90;;;;;;5094413;28;20207;-66
2022/09/07 05:43:26;;;;;;;4.78;3.67;;;16.30;99.90;;;;;;5092572;28;20244;-66
2022/09/07 05:45:55;;;;;;;6.45;4.03;;;16.40;99.90;;;;;;5093727;28;20173;-66
2022/09/07 05:48:21;;;;;;;5.07;4.03;;;16.40;99.90;;;;;;5093546;28;20192;-66
2022/09/07 05:50:51;;;;;;;4.90;3.30;;;16.30;99.90;;;;;;5093776;28;20169;-66
2022/09/07 05:53:20;;;;;;;6.07;3.80;;;16.40;99.90;;;;;;5094003;28;20174;-66
2022/09/07 05:55:46;;;;;;;8.00;4.00;;;16.40;99.90;;;;;;5092393;28;20177;-66
2022/09/07 05:58:12;;;;;;;4.88;4.00;;;16.50;99.90;;;;;;5078700;28;20588;-66
2022/09/07 06:00:38;;;;;;;6.03;4.53;;;16.60;99.90;;;;;;5072021;28;20264;-66
2022/09/07 06:03:04;;;;;;;7.53;4.40;;;16.60;99.90;;;;;;5073348;28;20607;-66
2022/09/07 06:05:30;;;;;;;4.90;4.18;;;16.70;99.90;;;;;;5075245;28;20265;-67
2022/09/07 06:07:55;;;;;;;5.85;3.90;;;16.70;99.90;;;;;;5093466;28;20219;-67
2022/09/07 06:10:21;;;;;;;6.32;4.43;;;16.70;99.90;;;;;;5094114;28;20701;-66
2022/09/07 06:12:47;;;;;;;7.68;4.75;;;16.80;99.90;;;;;;5094037;28;20664;-66
2022/09/07 06:15:13;;;;;;;9.43;4.20;;;16.80;99.90;;;;;;5093347;28;20181;-67
2022/09/07 06:17:39;;;;;;;6.13;4.72;;;16.90;99.90;;;;;;5093239;28;20231;-67
2022/09/07 06:20:05;;;;;;;5.72;4.10;;;16.90;99.90;;;;;;5093311;28;20172;-67
2022/09/07 06:22:35;;;;;;;8.38;4.50;;;17.00;99.90;;;;;;5094105;28;20311;-67
2022/09/07 06:25:01;;;;;;;6.82;4.40;;;17.10;99.90;;;;;;5097664;28;20196;-67
2022/09/07 06:27:31;;;;;;;4.68;3.70;;;17.20;99.90;;;;;;5091520;28;20233;-67
2022/09/07 06:29:58;;;;;;;5.40;4.03;;;17.30;99.90;;;;;;5079846;28;20150;-68
2022/09/07 06:32:24;;;;;;;6.38;4.72;;;17.40;99.90;;;;;;5076922;28;20186;-67
2022/09/07 06:34:50;;;;;;;7.55;4.72;;;17.40;99.90;;;;;;5075881;28;20557;-68
2022/09/07 06:37:16;;;;;;;8.10;4.80;;;17.40;99.90;;;;;;5092283;28;20208;-68
2022/09/07 06:39:42;;;;;;;8.48;4.78;;;17.40;99.90;;;;;;5097619;28;20184;-67
2022/09/07 06:42:07;;;;;;;7.38;4.93;;;17.50;99.90;;;;;;5099151;28;20523;-68
2022/09/07 06:44:33;;;;;;;6.72;5.22;;;17.50;99.90;;;;;;5097360;28;20208;-68
2022/09/07 06:46:59;;;;;;;7.18;4.78;;;17.50;99.90;;;;;;5096112;28;20193;-68
2022/09/07 06:49:25;;;;;;;8.75;5.60;;;17.60;99.90;;;;;;5097540;28;20169;-68
2022/09/07 06:51:51;;;;;;;8.88;5.47;;;17.80;99.90;;;;;;5097618;28;20244;-68
2022/09/07 06:54:17;;;;;;;11.23;5.97;;;17.90;99.90;;;;;;5097355;28;20540;-68
2022/09/07 06:56:43;;;;;;;8.02;5.63;;;17.90;99.90;;;;;;5096113;28;20709;-68
2022/09/07 06:59:09;;;;;;;10.75;6.53;;;17.90;99.90;;;;;;5076773;28;20201;-68
2022/09/07 07:01:35;;;;;;;10.05;5.03;;;18.00;99.90;;;;;;5080034;28;20634;-68
2022/09/07 07:04:01;;;;;;;8.43;4.90;;;18.00;99.90;;;;;;5076511;28;20239;-68
2022/09/07 07:06:38;;;;;;;7.20;5.32;;;18.10;99.90;;;;;;5086035;28;20181;-68
2022/09/07 07:09:06;;;;;;;8.57;5.78;;;18.20;99.90;;;;;;5095979;28;20644;-68
2022/09/07 07:11:31;;;;;;;6.03;4.38;;;18.30;99.90;;;;;;5097409;28;20169;-68
2022/09/07 07:13:58;;;;;;;6.47;4.30;;;18.30;99.90;;;;;;5097335;28;20174;-69
2022/09/07 07:16:24;;;;;;;7.95;4.72;;;18.40;99.90;;;;;;5095431;28;20184;-69
2022/09/07 07:18:55;;;;;;;6.95;4.70;;;18.30;99.90;;;;;;5096660;28;20232;-68
2022/09/07 07:21:21;;;;;;;9.18;4.22;;;18.20;99.90;;;;;;5097471;28;20157;-68
2022/09/07 07:23:51;;;;;;;5.43;4.07;;;18.20;99.90;;;;;;5096665;28;20200;-68
2022/09/07 07:26:19;;;;;;;6.13;4.03;;;18.20;99.90;;;;;;5096619;28;20248;-68
2022/09/07 07:28:46;;;;;;;6.38;3.40;;;18.20;99.90;;;;;;5078509;28;20715;-68
2022/09/07 07:31:13;;;;;;;5.45;3.80;;;18.40;99.90;;;;;;5076734;28;20186;-68
2022/09/07 07:33:40;;;;;;;6.68;3.65;;;18.60;99.90;;;;;;5076493;28;20205;-69
2022/09/07 07:36:26;;;;;;;5.68;4.18;;;18.50;99.90;;;;;;5081489;28;20219;-68
2022/09/07 07:38:54;;;;;;;6.40;3.78;;;18.80;99.90;;;;;;5096623;28;20162;-69
2022/09/07 07:41:22;;;;;;;5.72;3.42;;;18.90;99.90;;;;;;5096468;28;20268;-68
2022/09/07 07:43:55;;;;;;;4.45;3.25;;;19.00;99.90;;;;;;5096692;28;20687;-69
2022/09/07 07:46:23;;;;;;;4.40;2.72;;;19.10;99.90;;;;;;5096303;28;20149;-68
2022/09/07 07:48:48;;;;;;;3.80;2.90;;;19.20;99.90;;;;;;5095011;28;20615;-69
2022/09/07 07:51:14;;;;;;;5.68;2.53;;;19.40;99.90;;;;;;5094893;28;20173;-69
2022/09/07 07:53:41;;;;;;;4.82;2.95;;;19.50;99.90;;;;;;5096101;28;20542;-69
2022/09/07 07:56:09;;;;;;;3.90;2.50;;;19.60;99.90;;;;;;5096019;28;20173;-68
2022/09/07 07:58:36;;;;;;;4.03;2.35;;;19.70;99.90;;;;;;5079353;28;20202;-68
2022/09/07 08:01:10;;;;;;;3.60;2.40;;;19.80;99.90;;;;;;5074448;28;20599;-69
2022/09/07 08:03:38;;;;;;;4.22;2.40;;;19.90;99.90;;;;;;5075210;28;20200;-69
2022/09/07 08:06:06;;;;;;;3.00;2.28;;;20.00;99.90;;;;;;5080412;28;20188;-69
2022/09/07 08:08:33;;;;;;;4.78;2.65;;;20.10;99.90;;;;;;5096455;28;20250;-69
2022/09/07 08:11:03;;;;;;;2.78;2.30;;;20.20;99.90;;;;;;5096430;28;20175;-69
2022/09/07 08:13:33;;;;;;;4.88;2.58;;;20.30;99.90;;;;;;5096076;28;20173;-69
2022/09/07 08:15:59;;;;;;;3.08;2.50;;;20.30;99.90;;;;;;5095572;28;20177;-69
2022/09/07 08:18:25;;;;;;;5.18;2.70;;;20.40;99.90;;;;;;5094138;28;20247;-69
2022/09/07 08:20:51;;;;;;;3.83;2.60;;;20.40;99.90;;;;;;5095591;28;20174;-69
2022/09/07 08:23:19;;;;;;;1.92;1.83;;;20.40;99.90;;;;;;5095509;28;20207;-69
2022/09/07 08:25:49;;;;;;;3.03;2.22;;;20.40;99.90;;;;;;5094267;28;20173;-69
2022/09/07 08:28:15;;;;;;;2.55;2.15;;;20.20;99.90;;;;;;5081447;28;20276;-69
2022/09/07 08:30:41;;;;;;;4.13;2.45;;;20.20;99.90;;;;;;5075280;28;20205;-68
2022/09/07 08:33:07;;;;;;;2.17;1.98;;;20.20;99.90;;;;;;5074878;28;20185;-69
2022/09/07 08:35:33;;;;;;;4.35;2.45;;;20.20;99.90;;;;;;5077078;28;20166;-69
2022/09/07 08:37:58;;;;;;;2.75;2.33;;;20.20;99.90;;;;;;5095329;28;20189;-69
2022/09/07 08:40:24;;;;;;;3.08;2.53;;;20.20;99.90;;;;;;5094915;28;20258;-69
2022/09/07 08:43:19;;;;;;;7.05;2.63;;;20.30;99.90;;;;;;5095118;28;20196;-69
2022/09/07 08:45:51;;;;;;;3.33;2.38;;;20.40;99.90;;;;;;5094549;28;20154;-69
2022/09/07 08:48:22;;;;;;;5.85;2.40;;;20.50;99.90;;;;;;5094887;28;20267;-69
2022/09/07 08:50:55;;;;;;;2.58;2.30;;;20.50;99.90;;;;;;5095271;28;20165;-68
2022/09/07 08:53:23;;;;;;;3.63;1.98;;;20.60;99.90;;;;;;5093729;28;20222;-68
2022/09/07 08:56:08;;;;;;;4.95;2.50;;;20.70;99.90;;;;;;5093810;28;20651;-69
2022/09/07 08:58:53;;;;;;;4.78;2.15;;;20.90;99.90;;;;;;5078479;28;20232;-69
2022/09/07 09:01:32;;;;;;;3.30;2.22;;;21.20;99.90;;;;;;5073253;28;20251;-68
2022/09/07 09:03:59;;;;;;;3.30;2.40;;;21.40;99.90;;;;;;5073111;28;20193;-69
2022/09/07 09:06:57;;;;;;;3.38;2.33;;;21.50;99.90;;;;;;5083471;28;20306;-69
2022/09/07 09:09:29;;;;;;;5.07;2.60;;;21.50;99.90;;;;;;5090136;28;20188;-70
2022/09/07 09:12:24;;;;;;;3.47;2.30;;;21.60;99.90;;;;;;5093857;28;20188;-69
2022/09/07 09:15:20;;;;;;;2.95;2.08;;;21.70;99.90;;;;;;5094704;28;20188;-68
2022/09/07 09:18:01;;;;;;;4.38;2.40;;;21.90;99.90;;;;;;5094576;28;20203;-68
2022/09/07 09:20:33;;;;;;;6.45;2.80;;;21.80;99.90;;;;;;5094980;28;20157;-68
2022/09/07 09:23:12;;;;;;;2.38;1.80;;;21.70;99.90;;;;;;5093121;28;20204;-68
2022/09/07 09:25:51;;;;;;;4.03;2.08;;;21.70;99.90;;;;;;5094672;28;20153;-68
2022/09/07 09:28:17;;;;;;;2.22;2.00;;;21.50;99.90;;;;;;5080243;28;20197;-68
2022/09/07 09:30:43;;;;;;;3.95;2.08;;;21.60;99.90;;;;;;5074056;28;20166;-68
2022/09/07 09:33:19;;;;;;;2.50;1.90;;;21.70;99.90;;;;;;5073672;28;20185;-66
2022/09/07 09:35:51;;;;;;;3.40;2.20;;;21.90;99.90;;;;;;5077151;28;20272;-67
2022/09/07 09:38:33;;;;;;;2.65;1.90;;;22.10;99.90;;;;;;5094317;28;20189;-67
2022/09/07 09:41:13;;;;;;;3.63;1.85;;;22.30;99.90;;;;;;5094065;28;20189;-67
2022/09/07 09:43:46;;;;;;;2.88;2.00;;;22.40;99.90;;;;;;5092869;28;20660;-67
2022/09/07 09:46:32;;;;;;;1.52;1.42;;;22.50;99.90;;;;;;5092828;28;20714;-68
2022/09/07 09:49:04;;;;;;;1.60;1.50;;;22.50;99.90;;;;;;5093997;28;20177;-69
2022/09/07 09:51:39;;;;;;;3.53;1.50;;;22.40;99.90;;;;;;5094003;28;20208;-69
2022/09/07 09:54:36;;;;;;;2.20;1.30;;;22.50;99.90;;;;;;5094251;28;20237;-69
2022/09/07 09:57:02;;;;;;;2.55;1.38;;;22.50;99.90;;;;;;5090180;28;20209;-67
2022/09/07 09:59:30;;;;;;;1.90;1.45;;;22.60;99.90;;;;;;5073405;28;20272;-67
2022/09/07 10:01:57;;;;;;;1.73;1.60;;;22.60;99.90;;;;;;5072846;28;20218;-68
2022/09/07 10:04:23;;;;;;;1.70;1.60;;;22.70;99.90;;;;;;5073947;28;20197;-67
2022/09/07 10:07:13;;;;;;;5.55;1.60;;;22.70;99.90;;;;;;5087056;28;20199;-67
2022/09/07 10:09:41;;;;;;;2.25;2.05;;;22.80;99.90;;;;;;5093401;28;20198;-67
2022/09/07 10:12:31;;;;;;;1.67;1.58;;;22.80;99.90;;;;;;5094262;28;20199;-67
2022/09/07 10:14:58;;;;;;;4.38;1.67;;;22.90;99.90;;;;;;5094482;28;20166;-67
2022/09/07 10:17:39;;;;;;;2.47;1.70;;;23.10;99.90;;;;;;5092541;28;20257;-67
2022/09/07 10:20:18;;;;;;;1.98;1.50;;;23.20;99.90;;;;;;5092509;28;20181;-68
2022/09/07 10:22:53;;;;;;;4.55;1.92;;;23.20;99.90;;;;;;5093999;28;20156;-68
2022/09/07 10:25:32;;;;;;;3.25;1.90;;;23.10;99.90;;;;;;5093372;28;20165;-67
2022/09/07 10:28:12;;;;;;;2.83;1.70;;;23.20;99.90;;;;;;5081989;28;20234;-67
2022/09/07 10:31:20;;;;;;;1.75;1.65;;;23.30;99.90;;;;;;5071929;28;20260;-67
2022/09/07 10:33:57;;;;;;;2.60;1.83;;;23.40;99.90;;;;;;5073326;28;20180;-67
2022/09/07 10:36:46;;;;;;;2.42;1.60;;;23.40;99.90;;;;;;5081994;28;20271;-68
2022/09/07 10:39:22;;;;;;;2.67;1.88;;;23.50;99.90;;;;;;5093907;28;20208;-68
2022/09/07 10:41:59;;;;;;;1.77;1.67;;;23.70;99.90;;;;;;5093373;28;20226;-67
2022/09/07 10:45:04;;;;;;;1.85;1.75;;;23.60;99.90;;;;;;5093185;28;20197;-67
2022/09/07 10:47:48;;;;;;;2.92;1.70;;;23.70;99.90;;;;;;5091764;28;20720;-67
2022/09/07 10:50:17;;;;;;;5.93;2.08;;;23.60;99.90;;;;;;5092124;28;20201;-67
2022/09/07 10:53:14;;;;;;;2.58;1.70;;;23.60;99.90;;;;;;5093276;28;20177;-67
2022/09/07 10:56:00;;;;;;;2.22;1.88;;;23.80;99.90;;;;;;5092725;28;20596;-67
2022/09/07 10:59:06;;;;;;;2.72;2.30;;;23.80;99.90;;;;;;5076380;28;20210;-67
2022/09/07 11:01:45;;;;;;;3.10;1.80;;;23.80;99.90;;;;;;5071295;28;20190;-68
2022/09/07 11:04:16;;;;;;;3.88;2.55;;;23.60;99.90;;;;;;5072693;28;20194;-67
2022/09/07 11:06:48;;;;;;;2.50;2.20;;;23.40;99.90;;;;;;5082944;28;20255;-67
2022/09/07 11:09:34;;;;;;;5.43;2.58;;;23.40;99.90;;;;;;5094871;28;20189;-67
2022/09/07 11:12:16;;;;;;;3.75;2.67;;;23.30;99.90;;;;;;5096253;28;20185;-67
2022/09/07 11:14:48;;;;;;;4.57;2.65;;;23.30;99.90;;;;;;5097210;28;20161;-67
2022/09/07 11:17:22;;;;;;;5.55;2.60;;;23.40;99.90;;;;;;5096761;28;20189;-67
2022/09/07 11:20:03;;;;;;;3.55;2.83;;;23.60;99.90;;;;;;5096591;28;20172;-67
2022/09/07 11:22:36;;;;;;;5.10;2.88;;;23.70;99.90;;;;;;5096670;28;20164;-67
2022/09/07 11:25:16;;;;;;;4.50;2.83;;;23.90;99.90;;;;;;5096913;28;20556;-67
2022/09/07 11:28:04;;;;;;;3.47;2.80;;;24.00;99.90;;;;;;5087099;28;20210;-67
2022/09/07 11:30:38;;;;;;;5.20;2.60;;;24.00;99.90;;;;;;5076410;28;20178;-68
2022/09/07 11:33:22;;;;;;;3.55;2.55;;;23.90;99.90;;;;;;5074793;28;20189;-67
2022/09/07 11:36:01;;;;;;;3.50;2.65;;;23.90;99.90;;;;;;5080366;28;20213;-67
2022/09/07 11:38:59;;;;;;;2.88;2.20;;;23.70;99.90;;;;;;5094951;28;20193;-67
2022/09/07 11:41:45;;;;;;;3.05;2.20;;;23.60;99.90;;;;;;5094810;28;20250;-67
2022/09/07 11:44:23;;;;;;;4.93;2.20;;;23.50;99.90;;;;;;5096354;28;20192;-67
2022/09/07 11:46:54;;;;;;;2.25;2.00;;;23.50;99.90;;;;;;5094719;28;20204;-68
2022/09/07 11:49:24;;;;;;;4.22;2.95;;;23.50;99.90;;;;;;5096061;28;20628;-67
2022/09/07 11:51:56;;;;;;;2.58;2.22;;;23.40;99.90;;;;;;5096558;28;20240;-67
2022/09/07 11:54:40;;;;;;;4.28;2.20;;;23.30;99.90;;;;;;5094814;28;20626;-67
2022/09/07 11:57:14;;;;;;;3.22;2.40;;;23.30;99.90;;;;;;5091837;28;20205;-67
2022/09/07 11:59:49;;;;;;;3.65;2.55;;;23.50;99.90;;;;;;5075677;28;20184;-67
2022/09/07 12:02:28;;;;;;;5.43;2.50;;;24.10;99.90;;;;;;5075588;28;20558;-67
2022/09/07 12:05:30;;;;;;;5.80;2.90;;;24.60;99.90;;;;;;5075297;28;20190;-67
2022/09/07 12:07:58;;;;;;;3.45;2.50;;;24.90;99.90;;;;;;5055533;28;20189;-67
2022/09/07 12:10:27;;;;;;;3.92;2.40;;;25.10;99.90;;;;;;5055483;28;20643;-67
2022/09/07 12:13:05;;;;;;;4.57;2.63;;;25.40;99.90;;;;;;5055424;28;20183;-67
2022/09/07 12:15:43;;;;;;;3.22;2.40;;;25.80;99.90;;;;;;5054170;28;20516;-70
2022/09/07 12:18:30;;;;;;;3.53;2.40;;;26.40;99.90;;;;;;5053973;28;20225;-69
2022/09/07 12:20:55;;;;;;;4.32;2.42;;;26.40;99.90;;;;;;5054808;28;20167;-69
2022/09/07 12:23:27;;;;;;;5.20;2.97;;;25.80;99.90;;;;;;5055583;28;20198;-68
2022/09/07 12:26:34;;;;;;;5.93;2.80;;;25.30;99.90;;;;;;5055297;28;20196;-68
2022/09/07 12:28:59;;;;;;;5.25;2.90;;;24.90;99.90;;;;;;5070085;28;20194;-69
2022/09/07 12:31:45;;;;;;;4.35;3.00;;;24.60;99.90;;;;;;5075004;28;20191;-69
2022/09/07 12:34:45;;;;;;;3.63;2.70;;;24.20;99.90;;;;;;5074807;28;20307;-69
2022/09/07 12:37:44;;;;;;;4.60;2.75;;;24.10;99.90;;;;;;5090694;28;20221;-70
2022/09/07 12:40:34;;;;;;;2.78;2.47;;;24.20;99.90;;;;;;5093877;28;20195;-70
2022/09/07 12:43:12;;;;;;;4.90;2.70;;;24.20;99.90;;;;;;5095045;28;20217;-70
2022/09/07 12:45:38;;;;;;;4.78;3.13;;;24.50;99.90;;;;;;5093731;28;20260;-72
2022/09/07 12:48:15;;;;;;;8.23;3.55;;;24.40;99.90;;;;;;5095057;28;20213;-74
2022/09/07 12:51:09;;;;;;;5.32;4.03;;;24.40;99.90;;;;;;5095212;28;20241;-70
2022/09/07 12:53:46;;;;;;;5.40;3.38;;;24.20;99.90;;;;;;5095094;28;20187;-70
2022/09/07 12:56:18;;;;;;;4.47;3.58;;;24.10;99.90;;;;;;5095435;28;20619;-70
2022/09/07 12:58:50;;;;;;;6.20;3.90;;;24.10;99.90;;;;;;5075581;28;20208;-70
2022/09/07 13:01:46;;;;;;;6.03;3.80;;;24.00;99.90;;;;;;5074425;28;20178;-69
2022/09/07 13:04:21;;;;;;;5.47;3.08;;;23.90;99.90;;;;;;5069966;28;20205;-70
2022/09/07 13:06:59;;;;;;;5.07;2.80;;;23.80;99.90;;;;;;5087170;28;20192;-70
2022/09/07 13:09:38;;;;;;;4.13;2.50;;;23.60;99.90;;;;;;5095060;28;20161;-69
2022/09/07 13:12:30;;;;;;;3.28;2.90;;;23.50;99.90;;;;;;5095572;28;20165;-70
2022/09/07 13:14:57;;;;;;;3.42;2.35;;;23.60;99.90;;;;;;5095811;28;20244;-69
2022/09/07 13:17:28;;;;;;;4.53;2.45;;;23.50;99.90;;;;;;5094715;28;20197;-69